createdAt,value
2018-08-28T00:02:10.432Z,4.90
2018-08-28T00:04:39.368Z,5.27
2018-08-28T00:07:07.932Z,5.17
2018-08-28T00:09:36.637Z,4.70
2018-08-28T00:12:05.253Z,5.10
2018-08-28T00:14:33.797Z,4.37
2018-08-28T00:17:02.437Z,4.73
2018-08-28T00:19:31.703Z,5.67
2018-08-28T00:22:00.302Z,4.37
2018-08-28T00:24:29.229Z,4.30
2018-08-28T00:26:59.023Z,5.40
2018-08-28T00:29:28.559Z,5.13
2018-08-28T00:31:57.449Z,4.67
2018-08-28T00:34:26.147Z,5.30
2018-08-28T00:36:54.806Z,4.50
2018-08-28T00:39:23.733Z,4.17
2018-08-28T00:41:52.554Z,4.60
2018-08-28T00:44:21.766Z,6.17
2018-08-28T00:46:51.766Z,4.00
2018-08-28T00:49:20.640Z,4.33
2018-08-28T00:51:49.203Z,4.50
2018-08-28T00:54:17.968Z,4.40
2018-08-28T00:56:47.105Z,5.40
2018-08-28T00:59:15.888Z,4.53
2018-08-28T01:01:44.505Z,4.40
2018-08-28T01:04:13.112Z,4.90
2018-08-28T01:06:42.033Z,4.40
2018-08-28T01:09:10.860Z,4.90
2018-08-28T01:11:39.387Z,4.67
2018-08-28T01:14:08.030Z,3.97
2018-08-28T01:16:36.610Z,4.23
2018-08-28T01:19:05.871Z,4.20
2018-08-28T01:21:34.495Z,5.00
2018-08-28T01:24:03.273Z,4.97
2018-08-28T01:26:31.872Z,5.03
2018-08-28T01:29:00.521Z,5.30
2018-08-28T01:31:29.835Z,3.90
2018-08-28T01:33:59.405Z,4.23
2018-08-28T01:36:28.018Z,4.30
2018-08-28T01:38:56.727Z,4.53
2018-08-28T01:41:26.217Z,5.57
2018-08-28T01:43:55.007Z,4.60
2018-08-28T01:46:23.652Z,4.43
2018-08-28T01:48:52.287Z,4.90
2018-08-28T01:51:20.898Z,5.23
2018-08-28T01:53:49.857Z,5.07
2018-08-28T01:56:18.513Z,5.07
2018-08-28T01:58:47.159Z,5.60
2018-08-28T02:01:16.364Z,5.07
2018-08-28T02:03:44.983Z,4.50
2018-08-28T02:06:13.530Z,4.10
2018-08-28T02:08:42.177Z,5.73
2018-08-28T02:11:10.859Z,4.90
2018-08-28T02:13:39.419Z,4.90
2018-08-28T02:16:07.997Z,4.50
2018-08-28T02:18:36.586Z,4.30
2018-08-28T02:21:05.335Z,4.83
2018-08-28T02:23:34.017Z,4.10
2018-08-28T02:26:02.671Z,4.30
2018-08-28T02:28:31.268Z,5.17
2018-08-28T02:30:59.848Z,5.17
2018-08-28T02:33:28.478Z,4.40
2018-08-28T02:35:57.055Z,5.67
2018-08-28T02:38:25.640Z,5.40
2018-08-28T02:40:54.292Z,5.37
2018-08-28T02:43:22.924Z,5.20
2018-08-28T02:45:51.515Z,5.50
2018-08-28T02:48:20.191Z,4.17
2018-08-28T02:50:48.723Z,5.77
2018-08-28T02:53:18.012Z,5.37
2018-08-28T02:55:46.642Z,5.20
2018-08-28T02:58:15.370Z,5.13
2018-08-28T03:00:43.940Z,5.07
2018-08-28T03:03:12.552Z,5.00
2018-08-28T03:05:41.154Z,5.70
2018-08-28T03:08:09.793Z,5.03
2018-08-28T03:10:38.484Z,5.40
2018-08-28T03:13:07.268Z,5.27
2018-08-28T03:15:36.087Z,4.83
2018-08-28T03:18:04.683Z,5.30
2018-08-28T03:20:33.246Z,5.43
2018-08-28T03:23:01.856Z,5.50
2018-08-28T03:25:30.585Z,5.17
2018-08-28T03:27:59.272Z,5.43
2018-08-28T03:30:27.909Z,5.20
2018-08-28T03:32:56.524Z,5.03
2018-08-28T03:35:25.104Z,5.00
2018-08-28T03:37:53.704Z,4.50
2018-08-28T03:40:22.381Z,5.50
2018-08-28T03:42:50.954Z,6.10
2018-08-28T03:45:19.578Z,6.23
2018-08-28T03:47:48.184Z,4.90
2018-08-28T03:50:16.860Z,4.70
2018-08-28T03:52:45.588Z,4.97
2018-08-28T03:55:14.227Z,6.40
2018-08-28T03:57:43.305Z,6.23
2018-08-28T04:00:11.951Z,4.20
2018-08-28T04:02:40.605Z,7.10
2018-08-28T04:05:09.356Z,5.27
2018-08-28T04:07:38.093Z,5.70
2018-08-28T04:10:06.656Z,4.97
2018-08-28T04:12:35.275Z,5.20
2018-08-28T04:15:04.020Z,5.60
2018-08-28T04:17:36.808Z,5.57
2018-08-28T04:20:05.472Z,6.37
2018-08-28T04:22:34.116Z,5.07
2018-08-28T04:25:02.675Z,6.40
2018-08-28T04:27:31.292Z,4.90
2018-08-28T04:29:59.842Z,5.80
2018-08-28T04:32:28.610Z,5.30
2018-08-28T04:34:57.212Z,5.70
2018-08-28T04:37:25.800Z,5.97
2018-08-28T04:39:54.755Z,6.47
2018-08-28T04:42:23.535Z,5.97
2018-08-28T04:44:52.225Z,5.90
2018-08-28T04:47:20.772Z,6.10
2018-08-28T04:49:49.602Z,6.43
2018-08-28T04:52:18.374Z,5.83
2018-08-28T04:54:47.399Z,7.17
2018-08-28T04:57:17.080Z,5.70
2018-08-28T04:59:45.892Z,6.17
2018-08-28T05:02:14.644Z,6.23
2018-08-28T05:04:43.256Z,7.27
2018-08-28T05:07:12.609Z,5.17
2018-08-28T05:09:41.375Z,5.47
2018-08-28T05:12:10.026Z,6.73
2018-08-28T05:14:38.657Z,4.80
2018-08-28T05:17:07.447Z,6.33
2018-08-28T05:19:36.100Z,5.90
2018-08-28T05:22:04.796Z,7.20
2018-08-28T05:24:33.438Z,7.60
2018-08-28T05:27:02.101Z,7.63
2018-08-28T05:29:30.723Z,6.30
2018-08-28T05:31:59.506Z,6.50
2018-08-28T05:34:28.248Z,6.47
2018-08-28T05:36:56.987Z,5.43
2018-08-28T05:39:25.627Z,7.13
2018-08-28T05:41:54.458Z,5.03
2018-08-28T05:44:23.052Z,6.00
2018-08-28T05:46:51.830Z,5.67
2018-08-28T05:49:20.400Z,8.33
2018-08-28T05:51:49.030Z,7.33
2018-08-28T05:54:17.753Z,5.87
2018-08-28T05:56:46.432Z,7.00
2018-08-28T05:59:15.104Z,5.50
2018-08-28T06:01:43.705Z,6.30
2018-08-28T06:04:12.362Z,7.00
2018-08-28T06:06:42.024Z,6.43
2018-08-28T06:09:10.637Z,7.67
2018-08-28T06:11:39.297Z,6.07
2018-08-28T06:14:07.874Z,7.27
2018-08-28T06:16:36.595Z,6.13
2018-08-28T06:19:05.376Z,6.37
2018-08-28T06:21:34.070Z,7.97
2018-08-28T06:24:02.734Z,6.20
2018-08-28T06:26:31.623Z,6.60
2018-08-28T06:29:00.153Z,6.67
2018-08-28T06:31:29.057Z,6.00
2018-08-28T06:33:57.775Z,6.30
2018-08-28T06:36:26.368Z,5.90
2018-08-28T06:38:55.804Z,6.87
2018-08-28T06:41:24.419Z,5.73
2018-08-28T06:43:53.059Z,5.60
2018-08-28T06:46:22.786Z,5.97
2018-08-28T06:48:52.095Z,6.80
2018-08-28T06:51:20.852Z,5.87
2018-08-28T06:53:49.588Z,7.33
2018-08-28T06:56:18.299Z,6.83
2018-08-28T06:58:47.076Z,6.30
2018-08-28T07:01:15.678Z,6.47
2018-08-28T07:03:44.356Z,8.03
2018-08-28T07:06:13.022Z,6.10
2018-08-28T07:08:41.827Z,7.97
2018-08-28T07:11:10.463Z,6.80
2018-08-28T07:13:39.087Z,6.53
2018-08-28T07:16:07.943Z,6.00
2018-08-28T07:18:36.569Z,6.40
2018-08-28T07:21:05.380Z,6.13
2018-08-28T07:23:34.190Z,6.07
2018-08-28T07:26:02.897Z,5.50
2018-08-28T07:28:31.467Z,5.70
2018-08-28T07:31:00.112Z,5.37
2018-08-28T07:33:28.789Z,6.10
2018-08-28T07:35:57.513Z,5.70
2018-08-28T07:38:26.190Z,6.17
2018-08-28T07:40:56.037Z,6.57
2018-08-28T07:43:24.633Z,6.00
2018-08-28T07:45:53.325Z,5.10
2018-08-28T07:48:22.014Z,5.90
2018-08-28T07:50:50.656Z,6.50
2018-08-28T07:53:19.279Z,5.40
2018-08-28T07:55:48.639Z,5.73
2018-08-28T07:58:17.583Z,7.30
2018-08-28T08:00:46.641Z,4.70
2018-08-28T08:03:19.542Z,5.30
2018-08-28T08:05:48.220Z,5.80
2018-08-28T08:08:16.964Z,5.67
2018-08-28T08:10:45.584Z,4.47
2018-08-28T08:13:14.364Z,4.63
2018-08-28T08:15:43.008Z,5.27
2018-08-28T08:18:11.866Z,6.03
2018-08-28T08:20:40.993Z,4.40
2018-08-28T08:23:10.528Z,4.93
2018-08-28T08:25:39.684Z,4.47
2018-08-28T08:28:09.414Z,5.03
2018-08-28T08:30:37.953Z,4.70
2018-08-28T08:33:06.771Z,4.47
2018-08-28T08:35:35.594Z,4.67
2018-08-28T08:38:04.354Z,5.27
2018-08-28T08:40:32.980Z,4.03
2018-08-28T08:43:01.689Z,4.07
2018-08-28T08:45:30.310Z,4.80
2018-08-28T08:47:58.985Z,4.17
2018-08-28T08:50:27.621Z,4.73
2018-08-28T08:52:56.601Z,4.50
2018-08-28T08:55:25.321Z,4.50
2018-08-28T08:57:54.015Z,3.93
2018-08-28T09:00:22.593Z,5.03
2018-08-28T09:02:51.274Z,4.70
2018-08-28T09:05:20.709Z,5.47
2018-08-28T09:07:49.817Z,4.80
2018-08-28T09:10:18.509Z,4.80
2018-08-28T09:12:47.571Z,4.90
2018-08-28T09:15:16.272Z,4.00
2018-08-28T09:17:44.917Z,4.10
2018-08-28T09:20:13.710Z,4.23
2018-08-28T09:22:42.370Z,4.30
2018-08-28T09:25:10.968Z,3.90
2018-08-28T09:27:39.799Z,4.00
2018-08-28T09:30:09.218Z,4.33
2018-08-28T09:32:37.907Z,3.97
2018-08-28T09:35:06.652Z,4.30
2018-08-28T09:37:35.430Z,3.93
2018-08-28T09:40:04.475Z,3.90
2018-08-28T09:42:34.088Z,4.23
2018-08-28T09:45:02.768Z,4.63
2018-08-28T09:47:31.556Z,3.63
2018-08-28T09:50:00.180Z,3.67
2018-08-28T09:52:29.004Z,3.90
2018-08-28T09:54:57.615Z,4.47
2018-08-28T09:57:26.779Z,3.33
2018-08-28T09:59:55.445Z,5.30
2018-08-28T10:02:24.300Z,4.47
2018-08-28T10:04:52.895Z,4.43
2018-08-28T10:07:21.506Z,5.00
2018-08-28T10:09:50.204Z,4.57
2018-08-28T10:12:18.901Z,4.43
2018-08-28T10:14:48.375Z,3.70
2018-08-28T10:17:17.242Z,4.17
2018-08-28T10:19:45.812Z,4.23
2018-08-28T10:22:14.452Z,4.50
2018-08-28T10:24:43.132Z,4.33
2018-08-28T10:27:11.798Z,4.10
2018-08-28T10:29:44.613Z,4.23
2018-08-28T10:32:13.343Z,4.00
2018-08-28T10:34:42.045Z,5.30
2018-08-28T10:37:10.775Z,3.90
2018-08-28T10:39:39.341Z,4.27
2018-08-28T10:42:07.965Z,4.43
2018-08-28T10:44:36.624Z,4.20
2018-08-28T10:47:05.700Z,3.97
2018-08-28T10:49:34.364Z,4.87
2018-08-28T10:52:03.465Z,4.70
2018-08-28T10:54:33.564Z,4.70
2018-08-28T10:57:03.352Z,4.67
2018-08-28T10:59:32.551Z,4.27
2018-08-28T11:02:01.112Z,4.50
2018-08-28T11:04:29.880Z,4.40
2018-08-28T11:06:58.693Z,4.37
2018-08-28T11:09:28.081Z,5.27
2018-08-28T11:11:56.792Z,4.23
2018-08-28T11:14:25.594Z,4.37
2018-08-28T11:16:54.225Z,4.80
2018-08-28T11:19:23.543Z,4.97
2018-08-28T11:21:52.275Z,6.63
2018-08-28T11:24:21.078Z,4.80
2018-08-28T11:26:50.310Z,4.13
2018-08-28T11:29:18.880Z,4.53
2018-08-28T11:31:47.779Z,4.00
2018-08-28T11:34:16.437Z,4.70
2018-08-28T11:36:45.254Z,4.57
2018-08-28T11:39:14.664Z,5.13
2018-08-28T11:41:43.521Z,5.50
2018-08-28T11:44:12.164Z,5.63
2018-08-28T11:46:40.762Z,4.30
2018-08-28T11:49:09.459Z,5.43
2018-08-28T11:51:38.172Z,5.70
2018-08-28T11:54:07.291Z,5.20
2018-08-28T11:56:36.232Z,5.37
2018-08-28T11:59:04.814Z,4.73
2018-08-28T12:01:33.627Z,4.90
2018-08-28T12:04:02.344Z,4.60
2018-08-28T12:06:31.114Z,5.73
2018-08-28T12:08:59.986Z,6.07
2018-08-28T12:11:28.756Z,5.37
2018-08-28T12:13:57.339Z,7.90
2018-08-28T12:16:25.978Z,5.70
2018-08-28T12:18:55.208Z,5.00
2018-08-28T12:21:24.640Z,5.37
2018-08-28T12:23:53.244Z,4.77
2018-08-28T12:26:21.901Z,6.07
2018-08-28T12:28:50.500Z,5.20
2018-08-28T12:31:19.236Z,5.17
2018-08-28T12:33:48.242Z,5.20
2018-08-28T12:36:16.887Z,6.20
2018-08-28T12:38:45.495Z,4.77
2018-08-28T12:41:15.233Z,4.50
2018-08-28T12:43:44.550Z,5.40
2018-08-28T12:46:13.156Z,4.70
2018-08-28T12:48:41.942Z,5.83
2018-08-28T12:51:10.687Z,4.70
2018-08-28T12:53:39.504Z,4.93
2018-08-28T12:56:08.218Z,4.67
2018-08-28T12:58:36.894Z,5.90
2018-08-28T13:01:05.722Z,5.90
2018-08-28T13:03:34.399Z,4.30
2018-08-28T13:06:03.704Z,5.17
2018-08-28T13:08:32.448Z,6.63
2018-08-28T13:11:00.970Z,4.90
2018-08-28T13:13:29.612Z,5.70
2018-08-28T13:15:58.800Z,6.37
2018-08-28T13:18:27.454Z,6.10
2018-08-28T13:20:56.218Z,6.07
2018-08-28T13:23:25.012Z,6.20
2018-08-28T13:25:53.773Z,6.20
2018-08-28T13:28:22.344Z,5.73
2018-08-28T13:30:51.190Z,5.10
2018-08-28T13:33:19.820Z,5.50
2018-08-28T13:35:48.425Z,5.27
2018-08-28T13:38:17.063Z,6.17
2018-08-28T13:40:45.898Z,5.80
2018-08-28T13:43:14.168Z,5.27
2018-08-28T13:45:42.825Z,5.37
2018-08-28T13:48:11.499Z,4.50
2018-08-28T13:50:40.300Z,5.60
2018-08-28T13:53:09.116Z,5.87
2018-08-28T13:55:37.741Z,4.93
2018-08-28T13:58:06.503Z,5.30
2018-08-28T14:00:35.171Z,6.20
2018-08-28T14:03:03.821Z,5.70
2018-08-28T14:05:32.543Z,5.07
2018-08-28T14:08:01.135Z,6.30
2018-08-28T14:10:30.064Z,4.80
2018-08-28T14:12:58.733Z,5.07
2018-08-28T14:15:27.268Z,4.53
2018-08-28T14:17:55.895Z,5.10
2018-08-28T14:20:24.609Z,4.80
2018-08-28T14:22:53.307Z,6.70
2018-08-28T14:25:21.921Z,4.80
2018-08-28T14:27:50.658Z,4.90
2018-08-28T14:30:19.229Z,4.77
2018-08-28T14:32:47.800Z,5.57
2018-08-28T14:35:16.517Z,5.30
2018-08-28T14:37:45.408Z,5.00
2018-08-28T14:40:13.988Z,5.27
2018-08-28T14:42:43.357Z,5.27
2018-08-28T14:45:11.912Z,4.87
2018-08-28T14:47:40.573Z,5.63
2018-08-28T14:50:09.314Z,5.50
2018-08-28T14:52:37.959Z,5.90
2018-08-28T14:55:07.909Z,5.60
2018-08-28T14:57:36.509Z,5.87
2018-08-28T15:00:06.400Z,5.30
2018-08-28T15:02:35.009Z,4.83
2018-08-28T15:05:04.566Z,5.30
2018-08-28T15:07:33.579Z,4.87
2018-08-28T15:10:02.604Z,4.63
2018-08-28T15:12:31.572Z,5.30
2018-08-28T15:15:01.210Z,5.50
2018-08-28T15:17:29.836Z,4.60
2018-08-28T15:19:58.360Z,5.07
2018-08-28T15:22:27.095Z,5.40
2018-08-28T15:24:55.689Z,4.90
2018-08-28T15:27:24.478Z,5.30
2018-08-28T15:29:53.215Z,5.30
2018-08-28T15:32:22.412Z,5.20
2018-08-28T15:34:51.104Z,4.90
2018-08-28T15:37:19.785Z,5.17
2018-08-28T15:39:48.368Z,6.00
2018-08-28T15:42:17.214Z,5.67
2018-08-28T15:44:45.827Z,4.70
2018-08-28T15:47:14.507Z,5.20
2018-08-28T15:49:43.258Z,5.93
2018-08-28T15:52:11.892Z,5.30
2018-08-28T15:54:40.491Z,4.77
2018-08-28T15:57:09.986Z,5.37
2018-08-28T15:59:38.601Z,5.70
2018-08-28T16:02:07.166Z,4.30
2018-08-28T16:04:35.972Z,4.77
2018-08-28T16:07:05.126Z,5.47
2018-08-28T16:09:34.196Z,4.67
2018-08-28T16:12:02.959Z,4.03
2018-08-28T16:14:31.581Z,4.80
2018-08-28T16:17:00.289Z,4.77
2018-08-28T16:19:28.906Z,4.23
2018-08-28T16:21:59.343Z,4.70
2018-08-28T16:24:27.992Z,4.60
2018-08-28T16:26:56.684Z,5.10
2018-08-28T16:29:25.622Z,5.73
2018-08-28T16:31:54.231Z,4.90
2018-08-28T16:34:23.253Z,4.17
2018-08-28T16:36:51.939Z,4.37
2018-08-28T16:39:20.614Z,4.60
2018-08-28T16:41:49.352Z,4.73
2018-08-28T16:44:18.043Z,4.50
2018-08-28T16:46:46.759Z,4.63
2018-08-28T16:49:15.440Z,5.27
2018-08-28T16:51:44.080Z,5.37
2018-08-28T16:54:12.842Z,4.07
2018-08-28T16:56:43.525Z,4.17
2018-08-28T16:59:12.256Z,4.30
2018-08-28T17:01:41.011Z,4.53
2018-08-28T17:04:09.566Z,3.70
2018-08-28T17:06:38.325Z,4.60
2018-08-28T17:09:07.323Z,4.50
2018-08-28T17:11:36.005Z,4.10
2018-08-28T17:14:04.701Z,4.40
2018-08-28T17:16:33.572Z,4.20
2018-08-28T17:19:02.338Z,5.00
2018-08-28T17:21:31.187Z,5.50
2018-08-28T17:23:59.820Z,4.87
2018-08-28T17:26:28.649Z,5.83
2018-08-28T17:28:57.246Z,4.43
2018-08-28T17:31:25.841Z,4.30
2018-08-28T17:33:54.516Z,4.00
2018-08-28T17:36:23.135Z,4.00
2018-08-28T17:38:51.757Z,3.90
2018-08-28T17:41:20.383Z,4.17
2018-08-28T17:43:49.037Z,4.30
2018-08-28T17:46:17.802Z,3.23
2018-08-28T17:48:47.037Z,4.47
2018-08-28T17:51:15.605Z,4.00
2018-08-28T17:53:44.448Z,4.37
2018-08-28T17:56:13.069Z,3.60
2018-08-28T17:58:41.756Z,4.07
2018-08-28T18:01:10.524Z,4.47
2018-08-28T18:03:39.380Z,3.83
2018-08-28T18:06:08.058Z,3.73
2018-08-28T18:08:36.798Z,4.67
2018-08-28T18:11:05.620Z,4.50
2018-08-28T18:13:34.282Z,4.30
2018-08-28T18:16:02.945Z,4.67
2018-08-28T18:18:32.547Z,5.10
2018-08-28T18:21:01.329Z,4.90
2018-08-28T18:23:30.188Z,4.90
2018-08-28T18:25:58.908Z,4.57
2018-08-28T18:28:27.810Z,3.80
2018-08-28T18:30:57.215Z,4.10
2018-08-28T18:33:26.010Z,4.00
2018-08-28T18:35:54.707Z,4.30
2018-08-28T18:38:23.405Z,3.83
2018-08-28T18:40:52.328Z,4.10
2018-08-28T18:43:20.957Z,3.77
2018-08-28T18:45:49.562Z,4.13
2018-08-28T18:48:18.198Z,5.27
2018-08-28T18:50:47.418Z,3.90
2018-08-28T18:53:16.654Z,4.07
2018-08-28T18:55:45.287Z,4.00
2018-08-28T18:58:13.968Z,4.30
2018-08-28T19:00:43.596Z,4.27
2018-08-28T19:03:12.407Z,3.80
2018-08-28T19:05:41.188Z,4.10
2018-08-28T19:08:09.733Z,4.17
2018-08-28T19:10:38.913Z,4.10
2018-08-28T19:13:08.271Z,3.33
2018-08-28T19:15:36.972Z,4.57
2018-08-28T19:18:05.707Z,4.17
2018-08-28T19:20:34.361Z,4.27
2018-08-28T19:23:03.073Z,3.50
2018-08-28T19:25:31.808Z,3.20
2018-08-28T19:28:01.211Z,4.33
2018-08-28T19:30:29.875Z,4.20
2018-08-28T19:32:59.305Z,4.10
2018-08-28T19:35:27.936Z,4.30
2018-08-28T19:37:56.621Z,4.60
2018-08-28T19:40:25.807Z,4.73
2018-08-28T19:42:54.475Z,5.70
2018-08-28T19:45:23.238Z,4.10
2018-08-28T19:47:51.941Z,4.00
2018-08-28T19:50:20.578Z,4.57
2018-08-28T19:52:49.313Z,4.07
2018-08-28T19:55:18.182Z,4.50
2018-08-28T19:57:46.754Z,4.20
2018-08-28T20:00:15.502Z,4.70
2018-08-28T20:02:44.125Z,5.10
2018-08-28T20:05:12.700Z,5.23
2018-08-28T20:07:41.297Z,6.40
2018-08-28T20:10:10.048Z,6.00
2018-08-28T20:12:38.753Z,5.00
2018-08-28T20:15:07.441Z,5.27
2018-08-28T20:17:36.132Z,5.50
2018-08-28T20:20:05.296Z,5.23
2018-08-28T20:22:33.972Z,5.93
2018-08-28T20:25:02.685Z,5.03
2018-08-28T20:27:31.678Z,5.70
2018-08-28T20:30:00.436Z,4.93
2018-08-28T20:32:29.067Z,5.47
2018-08-28T20:34:58.683Z,5.27
2018-08-28T20:37:27.572Z,6.70
2018-08-28T20:39:56.241Z,5.17
2018-08-28T20:42:24.845Z,5.50
2018-08-28T20:44:54.192Z,6.03
2018-08-28T20:47:23.033Z,5.10
2018-08-28T20:49:52.211Z,5.40
2018-08-28T20:52:20.827Z,6.30
2018-08-28T20:54:50.493Z,5.10
2018-08-28T20:57:19.643Z,5.33
2018-08-28T20:59:48.537Z,5.73
2018-08-28T21:02:17.747Z,5.07
2018-08-28T21:04:47.860Z,5.60
2018-08-28T21:07:16.440Z,6.00
2018-08-28T21:09:45.047Z,5.80
2018-08-28T21:12:15.488Z,5.87
2018-08-28T21:14:44.355Z,6.57
2018-08-28T21:17:13.032Z,6.27
2018-08-28T21:19:42.424Z,6.27
2018-08-28T21:22:11.204Z,5.70
2018-08-28T21:24:41.015Z,5.63
2018-08-28T21:27:11.330Z,6.10
2018-08-28T21:29:40.461Z,5.90
2018-08-28T21:32:10.056Z,6.30
2018-08-28T21:34:38.942Z,6.17
2018-08-28T21:37:07.805Z,6.20
2018-08-28T21:39:36.717Z,6.73
2018-08-28T21:42:05.677Z,5.73
2018-08-28T21:44:34.479Z,6.03
2018-08-28T21:47:04.378Z,5.67
2018-08-28T21:49:33.586Z,5.80
2018-08-28T21:52:02.470Z,5.23
2018-08-28T21:54:31.967Z,5.50
2018-08-28T21:57:01.267Z,6.10
2018-08-28T21:59:30.185Z,5.90
2018-08-28T22:01:59.706Z,5.50
2018-08-28T22:04:29.623Z,6.30
2018-08-28T22:08:03.279Z,5.77
2018-08-28T22:10:32.464Z,6.10
2018-08-28T22:13:01.828Z,6.00
2018-08-28T22:15:30.460Z,5.97
2018-08-28T22:17:59.046Z,5.30
2018-08-28T22:20:27.660Z,6.53
2018-08-28T22:22:56.973Z,6.03
2018-08-28T22:25:25.914Z,5.53
2018-08-28T22:27:54.548Z,6.37
2018-08-28T22:30:24.598Z,6.30
2018-08-28T22:32:53.437Z,5.77
2018-08-28T22:35:22.609Z,5.83
2018-08-28T22:37:51.481Z,6.27
2018-08-28T22:40:20.169Z,5.50
2018-08-28T22:42:48.856Z,6.27
2018-08-28T22:45:17.577Z,6.50
2018-08-28T22:47:46.192Z,6.20
2018-08-28T22:50:14.898Z,6.40
2018-08-28T22:52:43.688Z,6.60
2018-08-28T22:55:13.003Z,6.27
2018-08-28T22:57:41.593Z,5.60
2018-08-28T23:00:10.216Z,6.00
2018-08-28T23:02:40.061Z,6.50
2018-08-28T23:05:08.710Z,6.33
2018-08-28T23:07:37.348Z,6.70
2018-08-28T23:10:06.093Z,6.47
2018-08-28T23:12:34.867Z,5.70
2018-08-28T23:15:04.137Z,6.53
2018-08-28T23:17:32.734Z,6.57
2018-08-28T23:20:01.328Z,6.17
2018-08-28T23:22:29.942Z,6.83
2018-08-28T23:24:58.945Z,5.80
2018-08-28T23:27:27.691Z,6.70
2018-08-28T23:29:56.266Z,6.40
2018-08-28T23:32:24.848Z,6.40
2018-08-28T23:34:53.472Z,6.00
2018-08-28T23:37:22.343Z,6.40
2018-08-28T23:39:51.055Z,6.60
2018-08-28T23:42:19.829Z,5.83
2018-08-28T23:44:49.032Z,6.33
2018-08-28T23:47:17.588Z,6.50
2018-08-28T23:49:46.463Z,6.73
2018-08-28T23:52:15.091Z,6.17
2018-08-28T23:54:43.758Z,6.83
2018-08-28T23:57:12.445Z,6.90
2018-08-28T23:59:41.085Z,5.90
